Svyataya Anna — UUCV — position and weather

sailwx.info

Track history (hours):
 
Tides and Currents Weather Stations Pressure Air Temp Water Temp Dewpoint Dewpoint Depression Visibility Wind Speed Wind Dir Waves Ship Positions

Svyataya Anna

Last reported at 2014-Jul-27 00:05 UTC. Time now 2014-Jul-28 18:29 UTC.
Position N 44°20' E 034°07'.

Length 93 m; draft 3.2 m.

Type: Cargo ship. MMSI: 272068800.

Date/timePositionNaut miles runAvg speedWind from/ knotsBaromVisibWave heightAir tempDewpointWater temp
2014-Jul-27 00:05N 44°20' E 034°07'5 6.1
2014-Jul-26 23:17N 44°23' E 034°12'4 6.0
2014-Jul-26 22:33N 44°25' E 034°18'6 5.6
2014-Jul-26 21:33N 44°27' E 034°25'5 5.4
2014-Jul-26 20:33N 44°29' E 034°32'6 5.6
2014-Jul-26 19:33N 44°32' E 034°39'5 5.4
2014-Jul-26 18:33N 44°34' E 034°46'6 5.5
2014-Jul-26 17:33N 44°36' E 034°53'6 5.7
2014-Jul-26 16:33N 44°39' E 034°60'6 5.7
2014-Jul-26 15:33N 44°41' E 035°07'  
2014-Jul-19 07:32N 44°41' E 035°03'6 5.8
2014-Jul-19 06:33N 44°38' E 034°57'6 5.8
2014-Jul-19 05:33N 44°34' E 034°50'6 5.5
2014-Jul-19 04:33N 44°31' E 034°44'3 2.2
2014-Jul-19 03:25N 44°30' E 034°40'5 5.4
2014-Jul-19 02:33N 44°29' E 034°34'5 5.1
2014-Jul-19 01:33N 44°26' E 034°28'5 5.4
2014-Jul-19 00:33N 44°23' E 034°22'5 5.3
2014-Jul-18 23:33N 44°20' E 034°16'7 5.5
2014-Jul-18 22:19N 44°16' E 034°08'5 5.6
2014-Jul-18 21:25N 44°14' E 034°02'194 4.4
2014-Jul-17 01:03N 46°30' E 030°44'0 0.0
2014-Jul-17 00:33N 46°30' E 030°44'  
Track history (hours):
 
Tides and Currents Weather Stations Pressure Air Temp Water Temp Dewpoint Dewpoint Depression Visibility Wind Speed Wind Dir Waves Ship Positions

Svyataya Anna

Last reported at 2014-Jul-27 00:05 UTC. Time now 2014-Jul-28 18:29 UTC.
Position N 44°20' E 034°07'.

Length 93 m; draft 3.2 m.

Type: Cargo ship. MMSI: 272068800.

Date/timePositionNaut miles runAvg speedWind from/ knotsBaromVisibWave heightAir tempDewpointWater temp
2014-Jul-27 00:05N 44°20' E 034°07'5 6.1
2014-Jul-26 23:17N 44°23' E 034°12'4 6.0
2014-Jul-26 22:33N 44°25' E 034°18'6 5.6
2014-Jul-26 21:33N 44°27' E 034°25'5 5.4
2014-Jul-26 20:33N 44°29' E 034°32'6 5.6
2014-Jul-26 19:33N 44°32' E 034°39'5 5.4
2014-Jul-26 18:33N 44°34' E 034°46'6 5.5
2014-Jul-26 17:33N 44°36' E 034°53'6 5.7
2014-Jul-26 16:33N 44°39' E 034°60'6 5.7
2014-Jul-26 15:33N 44°41' E 035°07'  
2014-Jul-19 07:32N 44°41' E 035°03'6 5.8
2014-Jul-19 06:33N 44°38' E 034°57'6 5.8
2014-Jul-19 05:33N 44°34' E 034°50'6 5.5
2014-Jul-19 04:33N 44°31' E 034°44'3 2.2
2014-Jul-19 03:25N 44°30' E 034°40'5 5.4
2014-Jul-19 02:33N 44°29' E 034°34'5 5.1
2014-Jul-19 01:33N 44°26' E 034°28'5 5.4
2014-Jul-19 00:33N 44°23' E 034°22'5 5.3
2014-Jul-18 23:33N 44°20' E 034°16'7 5.5
2014-Jul-18 22:19N 44°16' E 034°08'5 5.6
2014-Jul-18 21:25N 44°14' E 034°02'194 4.4
2014-Jul-17 01:03N 46°30' E 030°44'0 0.0
2014-Jul-17 00:33N 46°30' E 030°44'  

Dump ship's entire track history